createdAt,value
2018-12-22T00:00:31.766Z,1001.42
2018-12-22T00:01:31.754Z,1001.41
2018-12-22T00:02:31.742Z,1001.37
2018-12-22T00:03:31.753Z,1001.31
2018-12-22T00:04:31.729Z,1001.26
2018-12-22T00:05:31.707Z,1001.28
2018-12-22T00:06:31.702Z,1001.28
2018-12-22T00:07:31.688Z,1001.34
2018-12-22T00:08:31.697Z,1001.25
2018-12-22T00:09:31.665Z,1001.28
2018-12-22T00:10:31.655Z,1001.28
2018-12-22T00:11:31.646Z,1001.28
2018-12-22T00:12:31.634Z,1001.28
2018-12-22T00:13:31.649Z,1001.32
2018-12-22T00:14:31.608Z,1001.33
2018-12-22T00:15:31.601Z,1001.32
2018-12-22T00:16:31.590Z,1001.34
2018-12-22T00:17:31.576Z,1001.32
2018-12-22T00:18:31.591Z,1001.31
2018-12-22T00:19:31.578Z,1001.31
2018-12-22T00:20:31.546Z,1001.33
2018-12-22T00:21:31.545Z,1001.34
2018-12-22T00:22:31.526Z,1001.37
2018-12-22T00:23:31.534Z,1001.37
2018-12-22T00:24:31.500Z,1001.35
2018-12-22T00:25:31.487Z,1001.41
2018-12-22T00:26:31.480Z,1001.41
2018-12-22T00:27:31.469Z,1001.44
2018-12-22T00:28:31.478Z,1001.38
2018-12-22T00:29:31.446Z,1001.37
2018-12-22T00:30:31.434Z,1001.42
2018-12-22T00:31:31.425Z,1001.40
2018-12-22T00:32:31.425Z,1001.38
2018-12-22T00:33:31.427Z,1001.42
2018-12-22T00:34:31.391Z,1001.42
2018-12-22T00:35:31.381Z,1001.44
2018-12-22T00:36:31.368Z,1001.44
2018-12-22T00:37:31.358Z,1001.39
2018-12-22T00:38:31.369Z,1001.44
2018-12-22T00:39:31.335Z,1001.44
2018-12-22T00:40:31.325Z,1001.46
2018-12-22T00:41:31.321Z,1001.44
2018-12-22T00:42:31.305Z,1001.37
2018-12-22T00:43:31.314Z,1001.35
2018-12-22T00:44:31.295Z,1001.35
2018-12-22T00:45:31.272Z,1001.40
2018-12-22T00:46:31.262Z,1001.42
2018-12-22T00:47:31.247Z,1001.37
2018-12-22T00:48:31.260Z,1001.31
2018-12-22T00:49:31.228Z,1001.33
2018-12-22T00:50:31.219Z,1001.43
2018-12-22T00:51:31.206Z,1001.39
2018-12-22T00:52:31.193Z,1001.42
2018-12-22T00:53:31.210Z,1001.39
2018-12-22T00:54:31.176Z,1001.40
2018-12-22T00:55:31.160Z,1001.38
2018-12-22T00:56:31.151Z,1001.38
2018-12-22T00:57:31.146Z,1001.44
2018-12-22T00:58:31.148Z,1001.40
2018-12-22T00:59:31.120Z,1001.39
2018-12-22T01:00:31.107Z,1001.36
2018-12-22T01:01:31.094Z,1001.30
2018-12-22T01:02:31.086Z,1001.24
2018-12-22T01:03:31.097Z,1001.24
2018-12-22T01:04:31.062Z,1001.31
2018-12-22T01:05:31.049Z,1001.30
2018-12-22T01:06:31.047Z,1001.31
2018-12-22T01:07:31.028Z,1001.40
2018-12-22T01:08:31.056Z,1001.35
2018-12-22T01:09:31.007Z,1001.38
2018-12-22T01:10:30.996Z,1001.37
2018-12-22T01:11:30.991Z,1001.35
2018-12-22T01:12:30.976Z,1001.35
2018-12-22T01:13:30.967Z,1001.30
2018-12-22T01:14:30.990Z,1001.30
2018-12-22T01:15:30.946Z,1001.34
2018-12-22T01:16:30.940Z,1001.35
2018-12-22T01:17:30.921Z,1001.38
2018-12-22T01:18:30.908Z,1001.33
2018-12-22T01:19:30.922Z,1001.35
2018-12-22T01:20:30.887Z,1001.36
2018-12-22T01:21:30.874Z,1001.38
2018-12-22T01:22:30.865Z,1001.39
2018-12-22T01:23:30.854Z,1001.41
2018-12-22T01:24:30.863Z,1001.41
2018-12-22T01:25:30.831Z,1001.37
2018-12-22T01:26:30.824Z,1001.34
2018-12-22T01:27:30.817Z,1001.34
2018-12-22T01:28:39.229Z,1001.39
2018-12-22T01:29:30.811Z,1001.41
2018-12-22T01:30:30.775Z,1001.36
2018-12-22T01:31:30.769Z,1001.42
2018-12-22T01:32:30.766Z,1001.42
2018-12-22T01:33:30.745Z,1001.40
2018-12-22T01:34:30.753Z,1001.42
2018-12-22T01:35:30.723Z,1001.40
2018-12-22T01:36:30.716Z,1001.42
2018-12-22T01:37:30.698Z,1001.46
2018-12-22T01:38:30.689Z,1001.44
2018-12-22T01:39:30.698Z,1001.45
2018-12-22T01:40:30.667Z,1001.43
2018-12-22T01:41:30.662Z,1001.46
2018-12-22T01:42:30.644Z,1001.39
2018-12-22T01:43:30.632Z,1001.40
2018-12-22T01:44:30.647Z,1001.37
2018-12-22T01:45:30.611Z,1001.43
2018-12-22T01:46:30.600Z,1001.36
2018-12-22T01:47:30.591Z,1001.44
2018-12-22T01:48:30.577Z,1001.36
2018-12-22T01:49:30.650Z,1001.35
2018-12-22T01:50:30.555Z,1001.38
2018-12-22T01:51:30.544Z,1001.36
2018-12-22T01:52:30.534Z,1001.45
2018-12-22T01:53:30.523Z,1001.43
2018-12-22T01:54:30.535Z,1001.40
2018-12-22T01:55:30.508Z,1001.41
2018-12-22T01:56:30.493Z,1001.41
2018-12-22T01:57:30.480Z,1001.36
2018-12-22T01:58:30.469Z,1001.38
2018-12-22T01:59:30.481Z,1001.35
2018-12-22T02:00:30.446Z,1001.30
2018-12-22T02:01:30.438Z,1001.23
2018-12-22T02:02:30.424Z,1001.22
2018-12-22T02:03:30.415Z,1001.21
2018-12-22T02:04:30.426Z,1001.23
2018-12-22T02:05:30.394Z,1001.12
2018-12-22T02:06:30.379Z,1001.09
2018-12-22T02:07:30.370Z,1001.12
2018-12-22T02:08:30.358Z,1001.16
2018-12-22T02:09:30.381Z,1001.17
2018-12-22T02:10:30.337Z,1001.13
2018-12-22T02:11:30.334Z,1001.10
2018-12-22T02:12:30.311Z,1001.13
2018-12-22T02:13:30.306Z,1001.12
2018-12-22T02:14:30.313Z,1001.14
2018-12-22T02:15:30.279Z,1001.18
2018-12-22T02:16:30.289Z,1001.16
2018-12-22T02:17:30.256Z,1001.21
2018-12-22T02:18:30.246Z,1001.21
2018-12-22T02:19:30.281Z,1001.24
2018-12-22T02:20:30.224Z,1001.22
2018-12-22T02:21:30.229Z,1001.22
2018-12-22T02:22:30.208Z,1001.25
2018-12-22T02:23:30.193Z,1001.21
2018-12-22T02:24:30.204Z,1001.22
2018-12-22T02:25:30.168Z,1001.18
2018-12-22T02:26:30.200Z,1001.22
2018-12-22T02:27:30.146Z,1001.19
2018-12-22T02:28:30.161Z,1001.23
2018-12-22T02:29:30.152Z,1001.22
2018-12-22T02:30:30.113Z,1001.20
2018-12-22T02:31:30.114Z,1001.19
2018-12-22T02:32:30.091Z,1001.15
2018-12-22T02:33:30.081Z,1001.17
2018-12-22T02:34:30.091Z,1001.18
2018-12-22T02:35:30.063Z,1001.15
2018-12-22T02:36:30.049Z,1001.10
2018-12-22T02:37:30.036Z,1001.10
2018-12-22T02:38:30.026Z,1001.12
2018-12-22T02:39:30.037Z,1001.10
2018-12-22T02:40:30.010Z,1001.10
2018-12-22T02:41:29.993Z,1001.08
2018-12-22T02:42:30.012Z,1001.08
2018-12-22T02:43:29.979Z,1001.07
2018-12-22T02:44:29.982Z,1001.08
2018-12-22T02:45:29.952Z,1001.04
2018-12-22T02:46:29.937Z,1001.01
2018-12-22T02:47:38.694Z,1001.03
2018-12-22T02:48:38.434Z,1001.01
2018-12-22T02:49:29.930Z,1000.89
2018-12-22T02:50:29.893Z,1000.92
2018-12-22T02:51:29.885Z,1000.98
2018-12-22T02:52:29.873Z,1000.97
2018-12-22T02:53:29.865Z,1000.94
2018-12-22T02:54:29.873Z,1000.90
2018-12-22T02:55:29.838Z,1000.89
2018-12-22T02:56:29.837Z,1000.91
2018-12-22T02:57:29.822Z,1000.85
2018-12-22T02:58:29.807Z,1000.92
2018-12-22T02:59:29.820Z,1000.90
2018-12-22T03:00:29.791Z,1000.94
2018-12-22T03:01:38.096Z,1000.97
2018-12-22T03:02:29.764Z,1000.96
2018-12-22T03:03:29.750Z,1000.95
2018-12-22T03:04:29.787Z,1000.99
2018-12-22T03:05:29.734Z,1000.99
2018-12-22T03:06:29.730Z,1000.98
2018-12-22T03:07:29.721Z,1000.99
2018-12-22T03:08:29.703Z,1000.94
2018-12-22T03:09:29.688Z,1000.89
2018-12-22T03:10:29.700Z,1000.84
2018-12-22T03:11:29.665Z,1000.79
2018-12-22T03:12:29.654Z,1000.83
2018-12-22T03:13:29.642Z,1000.80
2018-12-22T03:14:29.650Z,1000.80
2018-12-22T03:15:29.648Z,1000.74
2018-12-22T03:16:29.623Z,1000.79
2018-12-22T03:17:29.599Z,1000.82
2018-12-22T03:18:29.590Z,1000.74
2018-12-22T03:19:29.576Z,1000.70
2018-12-22T03:20:29.588Z,1000.72
2018-12-22T03:21:29.551Z,1000.71
2018-12-22T03:22:29.544Z,1000.71
2018-12-22T03:23:29.534Z,1000.76
2018-12-22T03:24:29.520Z,1000.73
2018-12-22T03:25:29.533Z,1000.68
2018-12-22T03:26:29.498Z,1000.70
2018-12-22T03:27:29.486Z,1000.67
2018-12-22T03:28:29.480Z,1000.68
2018-12-22T03:29:29.465Z,1000.64
2018-12-22T03:30:29.486Z,1000.67
2018-12-22T03:31:29.454Z,1000.61
2018-12-22T03:32:29.437Z,1000.60
2018-12-22T03:33:29.424Z,1000.59
2018-12-22T03:34:29.415Z,1000.62
2018-12-22T03:35:29.423Z,1000.60
2018-12-22T03:36:29.388Z,1000.60
2018-12-22T03:37:29.377Z,1000.57
2018-12-22T03:38:29.371Z,1000.53
2018-12-22T03:39:29.358Z,1000.49
2018-12-22T03:40:29.368Z,1000.42
2018-12-22T03:41:29.331Z,1000.38
2018-12-22T03:42:29.327Z,1000.38
2018-12-22T03:43:29.310Z,1000.39
2018-12-22T03:44:29.301Z,1000.38
2018-12-22T03:45:29.310Z,1000.48
2018-12-22T03:46:29.281Z,1000.55
2018-12-22T03:47:29.269Z,1000.53
2018-12-22T03:48:29.258Z,1000.59
2018-12-22T03:49:29.246Z,1000.50
2018-12-22T03:50:29.256Z,1000.53
2018-12-22T03:51:29.237Z,1000.55
2018-12-22T03:52:29.214Z,1000.51
2018-12-22T03:53:29.202Z,1000.51
2018-12-22T03:54:29.201Z,1000.49
2018-12-22T03:55:29.212Z,1000.53
2018-12-22T03:56:29.188Z,1000.48
2018-12-22T03:57:29.161Z,1000.47
2018-12-22T03:58:29.147Z,1000.49
2018-12-22T03:59:29.138Z,1000.46
2018-12-22T04:00:29.154Z,1000.47
2018-12-22T04:01:29.114Z,1000.46
2018-12-22T04:02:29.103Z,1000.45
2018-12-22T04:03:29.110Z,1000.38
2018-12-22T04:04:29.085Z,1000.39
2018-12-22T04:05:29.092Z,1000.36
2018-12-22T04:06:29.060Z,1000.31
2018-12-22T04:07:29.046Z,1000.27
2018-12-22T04:08:29.034Z,1000.28
2018-12-22T04:09:29.026Z,1000.26
2018-12-22T04:10:29.035Z,1000.30
2018-12-22T04:11:29.003Z,1000.27
2018-12-22T04:12:28.995Z,1000.26
2018-12-22T04:13:28.978Z,1000.21
2018-12-22T04:14:28.970Z,1000.21
2018-12-22T04:15:28.980Z,1000.24
2018-12-22T04:16:28.948Z,1000.29
2018-12-22T04:17:28.933Z,1000.27
2018-12-22T04:18:28.928Z,1000.23
2018-12-22T04:19:28.912Z,1000.20
2018-12-22T04:20:28.923Z,1000.32
2018-12-22T04:21:28.889Z,1000.29
2018-12-22T04:22:28.882Z,1000.28
2018-12-22T04:23:28.868Z,1000.33
2018-12-22T04:24:28.858Z,1000.38
2018-12-22T04:25:28.872Z,1000.43
2018-12-22T04:26:28.837Z,1000.39
2018-12-22T04:27:28.837Z,1000.39
2018-12-22T04:28:28.816Z,1000.34
2018-12-22T04:29:33.846Z,1000.44
2018-12-22T04:30:29.815Z,1000.41
2018-12-22T04:31:28.780Z,1000.37
2018-12-22T04:32:28.770Z,1000.42
2018-12-22T04:33:28.762Z,1000.43
2018-12-22T04:34:28.746Z,1000.34
2018-12-22T04:35:28.758Z,1000.39
2018-12-22T04:36:28.725Z,1000.51
2018-12-22T04:37:28.714Z,1000.47
2018-12-22T04:38:28.704Z,1000.42
2018-12-22T04:39:28.694Z,1000.48
2018-12-22T04:40:28.705Z,1000.44
2018-12-22T04:41:28.668Z,1000.51
2018-12-22T04:42:28.657Z,1000.49
2018-12-22T04:43:28.651Z,1000.49
2018-12-22T04:44:28.636Z,1000.58
2018-12-22T04:45:28.651Z,1000.51
2018-12-22T04:46:28.615Z,1000.60
2018-12-22T04:47:28.606Z,1000.56
2018-12-22T04:48:28.592Z,1000.44
2018-12-22T04:49:28.580Z,1000.51
2018-12-22T04:50:28.593Z,1000.49
2018-12-22T04:51:28.559Z,1000.51
2018-12-22T04:52:28.547Z,1000.50
2018-12-22T04:53:28.543Z,1000.60
2018-12-22T04:54:28.534Z,1000.53
2018-12-22T04:55:28.550Z,1000.52
2018-12-22T04:56:28.507Z,1000.57
2018-12-22T04:57:28.492Z,1000.51
2018-12-22T04:58:28.481Z,1000.57
2018-12-22T04:59:28.470Z,1000.62
2018-12-22T05:00:28.461Z,1000.59
2018-12-22T05:01:28.474Z,1000.62
2018-12-22T05:02:28.443Z,1000.58
2018-12-22T05:03:28.438Z,1000.66
2018-12-22T05:04:28.421Z,1000.62
2018-12-22T05:05:28.405Z,1000.58
2018-12-22T05:06:28.416Z,1000.62
2018-12-22T05:07:28.387Z,1000.68
2018-12-22T05:08:28.379Z,1000.72
2018-12-22T05:09:28.363Z,1000.72
2018-12-22T05:10:28.349Z,1000.68
2018-12-22T05:11:28.372Z,1000.74
2018-12-22T05:12:28.332Z,1000.78
2018-12-22T05:13:28.339Z,1000.78
2018-12-22T05:14:28.309Z,1000.82
2018-12-22T05:15:28.297Z,1000.84
2018-12-22T05:16:28.319Z,1000.82
2018-12-22T05:17:28.272Z,1000.82
2018-12-22T05:18:28.262Z,1000.86
2018-12-22T05:19:28.252Z,1000.99
2018-12-22T05:20:28.246Z,1001.10
2018-12-22T05:21:28.252Z,1001.09
2018-12-22T05:22:28.222Z,1000.99
2018-12-22T05:23:28.211Z,1001.04
2018-12-22T05:24:28.198Z,1000.95
2018-12-22T05:25:28.189Z,1000.98
2018-12-22T05:26:28.209Z,1001.05
2018-12-22T05:27:28.165Z,1000.98
2018-12-22T05:28:28.152Z,1000.99
2018-12-22T05:29:28.142Z,1001.04
2018-12-22T05:30:28.136Z,1001.01
2018-12-22T05:31:28.147Z,1001.13
2018-12-22T05:32:28.107Z,1001.23
2018-12-22T05:33:28.101Z,1001.08
2018-12-22T05:34:28.086Z,1001.27
2018-12-22T05:35:28.075Z,1001.18
2018-12-22T05:36:28.086Z,1001.17
2018-12-22T05:37:28.066Z,1001.10
2018-12-22T05:38:28.047Z,1001.07
2018-12-22T05:39:28.037Z,1001.23
2018-12-22T05:40:28.037Z,1001.17
2018-12-22T05:41:28.033Z,1001.24
2018-12-22T05:42:27.997Z,1001.25
2018-12-22T05:43:27.998Z,1001.16
2018-12-22T05:44:27.978Z,1001.23
2018-12-22T05:45:27.964Z,1001.20
2018-12-22T05:46:27.973Z,1001.23
2018-12-22T05:47:27.944Z,1001.23
2018-12-22T05:48:27.929Z,1001.23
2018-12-22T05:49:27.925Z,1001.17
2018-12-22T05:50:27.908Z,1001.19
2018-12-22T05:51:27.923Z,1001.29
2018-12-22T05:52:27.891Z,1001.23
2018-12-22T05:53:27.875Z,1001.22
2018-12-22T05:54:27.866Z,1001.26
2018-12-22T05:55:27.854Z,1001.32
2018-12-22T05:56:29.831Z,1001.25
2018-12-22T05:57:27.835Z,1001.30
2018-12-22T05:58:27.820Z,1001.34
2018-12-22T05:59:27.809Z,1001.29
2018-12-22T06:00:27.798Z,1001.36
2018-12-22T06:01:27.813Z,1001.37
2018-12-22T06:02:27.778Z,1001.34
2018-12-22T06:03:27.764Z,1001.38
2018-12-22T06:04:27.754Z,1001.41
2018-12-22T06:05:27.747Z,1001.40
2018-12-22T06:06:27.756Z,1001.44
2018-12-22T06:07:27.723Z,1001.47
2018-12-22T06:08:27.711Z,1001.43
2018-12-22T06:09:27.699Z,1001.49
2018-12-22T06:10:27.692Z,1001.45
2018-12-22T06:11:27.704Z,1001.49
2018-12-22T06:12:27.674Z,1001.54
2018-12-22T06:13:27.655Z,1001.51
2018-12-22T06:14:27.647Z,1001.49
2018-12-22T06:15:27.633Z,1001.56
2018-12-22T06:16:27.645Z,1001.56
2018-12-22T06:17:27.685Z,1001.53
2018-12-22T06:18:27.602Z,1001.61
2018-12-22T06:19:27.590Z,1001.61
2018-12-22T06:20:27.578Z,1001.61
2018-12-22T06:21:36.438Z,1001.61
2018-12-22T06:22:27.559Z,1001.62
2018-12-22T06:23:27.551Z,1001.65
2018-12-22T06:24:27.534Z,1001.57
2018-12-22T06:25:27.522Z,1001.60
2018-12-22T06:26:27.556Z,1001.63
2018-12-22T06:27:27.501Z,1001.68
2018-12-22T06:28:27.495Z,1001.62
2018-12-22T06:29:27.479Z,1001.63
2018-12-22T06:30:27.470Z,1001.62
2018-12-22T06:31:37.151Z,1001.65
2018-12-22T06:32:36.136Z,1001.63
2018-12-22T06:33:27.719Z,1001.64
2018-12-22T06:34:27.424Z,1001.69
2018-12-22T06:35:27.413Z,1001.70
2018-12-22T06:36:27.425Z,1001.71
2018-12-22T06:37:27.391Z,1001.69
2018-12-22T06:38:27.384Z,1001.69
2018-12-22T06:39:27.369Z,1001.68
2018-12-22T06:40:27.362Z,1001.64
2018-12-22T06:41:27.368Z,1001.68
2018-12-22T06:42:27.337Z,1001.66
2018-12-22T06:43:27.324Z,1001.68
2018-12-22T06:44:27.314Z,1001.63
2018-12-22T06:45:27.306Z,1001.70
2018-12-22T06:46:27.316Z,1001.76
2018-12-22T06:47:27.282Z,1001.66
2018-12-22T06:48:27.270Z,1001.70
2018-12-22T06:49:27.263Z,1001.71
2018-12-22T06:50:27.248Z,1001.70
2018-12-22T06:51:27.264Z,1001.76
2018-12-22T06:52:36.739Z,1001.71
2018-12-22T06:53:27.261Z,1001.76
2018-12-22T06:54:27.206Z,1001.75
2018-12-22T06:55:27.191Z,1001.85
2018-12-22T06:56:27.216Z,1001.86
2018-12-22T06:57:27.173Z,1001.78
2018-12-22T06:58:27.166Z,1001.88
2018-12-22T06:59:27.151Z,1001.86
2018-12-22T07:00:27.138Z,1001.90
2018-12-22T07:01:27.128Z,1001.97
2018-12-22T07:02:27.138Z,1002.01
2018-12-22T07:03:27.111Z,1002.00
2018-12-22T07:04:27.096Z,1002.02
2018-12-22T07:05:36.808Z,1002.04
2018-12-22T07:06:27.071Z,1002.11
2018-12-22T07:07:27.084Z,1002.06
2018-12-22T07:08:27.049Z,1002.10
2018-12-22T07:09:27.039Z,1002.17
2018-12-22T07:10:27.029Z,1002.17
2018-12-22T07:11:27.019Z,1002.26
2018-12-22T07:12:27.029Z,1002.27
2018-12-22T07:13:27.054Z,1002.32
2018-12-22T07:14:26.984Z,1002.39
2018-12-22T07:15:35.329Z,1002.39
2018-12-22T07:16:35.366Z,1002.50
2018-12-22T07:17:26.976Z,1002.50
2018-12-22T07:18:26.943Z,1002.71
2018-12-22T07:19:26.934Z,1002.86
2018-12-22T07:20:26.917Z,1002.67
2018-12-22T07:21:26.908Z,1002.79
2018-12-22T07:22:26.922Z,1002.86
2018-12-22T07:23:26.884Z,1002.87
2018-12-22T07:24:26.873Z,1002.87
2018-12-22T07:25:26.863Z,1002.91
2018-12-22T07:26:26.852Z,1002.87
2018-12-22T07:27:26.866Z,1002.89
2018-12-22T07:28:26.829Z,1002.84
2018-12-22T07:29:26.819Z,1002.91
2018-12-22T07:30:26.813Z,1002.89
2018-12-22T07:31:35.106Z,1002.88
2018-12-22T07:32:26.808Z,1002.89
2018-12-22T07:33:26.774Z,1002.93
2018-12-22T07:34:26.764Z,1002.87
2018-12-22T07:35:35.193Z,1002.99
2018-12-22T07:36:26.755Z,1002.99
2018-12-22T07:37:26.753Z,1002.98
2018-12-22T07:38:26.719Z,1003.00
2018-12-22T07:39:26.721Z,1003.07
2018-12-22T07:40:26.804Z,1003.09
2018-12-22T07:41:26.688Z,1003.06
2018-12-22T07:42:26.702Z,1003.28
2018-12-22T07:43:26.664Z,1003.17
2018-12-22T07:44:26.653Z,1003.13
2018-12-22T07:45:26.645Z,1003.14
2018-12-22T07:46:26.632Z,1003.16
2018-12-22T07:47:26.641Z,1003.17
2018-12-22T07:48:35.065Z,1003.18
2018-12-22T07:49:26.612Z,1003.12
2018-12-22T07:50:26.589Z,1003.17
2018-12-22T07:51:35.095Z,1003.30
2018-12-22T07:52:26.587Z,1003.36
2018-12-22T07:53:26.552Z,1003.45
2018-12-22T07:54:26.543Z,1003.46
2018-12-22T07:55:26.533Z,1003.59
2018-12-22T07:56:26.528Z,1003.59
2018-12-22T07:57:26.531Z,1003.61
2018-12-22T07:58:26.507Z,1003.61
2018-12-22T07:59:26.487Z,1003.62
2018-12-22T08:00:34.622Z,1003.66
2018-12-22T08:01:26.470Z,1003.68
2018-12-22T08:02:26.480Z,1003.66
2018-12-22T08:03:26.459Z,1003.73
2018-12-22T08:04:26.583Z,1003.73
2018-12-22T08:05:26.424Z,1003.77
2018-12-22T08:06:26.425Z,1003.77
2018-12-22T08:07:26.421Z,1003.83
2018-12-22T08:08:26.391Z,1003.89
2018-12-22T08:09:35.465Z,1003.92
2018-12-22T08:10:26.367Z,1003.97
2018-12-22T08:11:35.015Z,1004.02
2018-12-22T08:12:26.399Z,1004.01
2018-12-22T08:13:26.333Z,1004.02
2018-12-22T08:14:26.327Z,1004.03
2018-12-22T08:15:26.313Z,1004.08
2018-12-22T08:16:26.368Z,1004.06
2018-12-22T08:17:26.362Z,1004.10
2018-12-22T08:18:37.623Z,1004.11
2018-12-22T08:19:26.267Z,1004.11
2018-12-22T08:20:35.834Z,1004.10
2018-12-22T08:21:26.380Z,1004.09
2018-12-22T08:22:26.498Z,1004.13
2018-12-22T08:23:26.224Z,1004.15
2018-12-22T08:24:26.213Z,1004.21
2018-12-22T08:25:26.201Z,1004.21
2018-12-22T08:27:51.922Z,1004.28
2018-12-22T08:28:51.886Z,1004.31
2018-12-22T08:29:51.879Z,1004.37
2018-12-22T08:30:51.863Z,1004.43
2018-12-22T08:31:51.856Z,1004.43
2018-12-22T08:32:51.864Z,1004.41
2018-12-22T08:33:51.832Z,1004.50
2018-12-22T08:34:51.819Z,1004.50
2018-12-22T08:35:51.809Z,1004.56
2018-12-22T08:36:51.797Z,1004.53
2018-12-22T08:37:51.811Z,1004.57
2018-12-22T08:38:51.779Z,1004.65
2018-12-22T08:39:51.763Z,1004.70
2018-12-22T08:40:51.753Z,1004.68
2018-12-22T08:41:51.741Z,1004.71
2018-12-22T08:42:51.752Z,1004.73
2018-12-22T08:43:51.719Z,1004.78
2018-12-22T08:44:51.709Z,1004.83
2018-12-22T08:46:00.032Z,1004.84
2018-12-22T08:46:51.687Z,1004.81
2018-12-22T08:47:51.709Z,1004.92
2018-12-22T08:48:51.663Z,1004.98
2018-12-22T08:49:51.653Z,1004.95
2018-12-22T08:50:51.647Z,1004.94
2018-12-22T08:51:51.633Z,1005.00
2018-12-22T08:52:51.647Z,1005.18
2018-12-22T08:53:51.607Z,1005.06
2018-12-22T08:54:51.596Z,1005.08
2018-12-22T08:55:51.589Z,1005.19
2018-12-22T08:56:51.577Z,1005.16
2018-12-22T08:57:51.588Z,1005.28
2018-12-22T08:59:43.145Z,1005.44
2018-12-22T09:00:43.203Z,1005.32
2018-12-22T09:01:44.115Z,1005.35
2018-12-22T09:02:43.123Z,1005.49
2018-12-22T09:03:43.090Z,1005.51
2018-12-22T09:04:43.078Z,1005.38
2018-12-22T09:05:43.072Z,1005.46
2018-12-22T09:06:43.062Z,1005.49
2018-12-22T09:07:43.079Z,1005.48
2018-12-22T09:08:43.037Z,1005.48
2018-12-22T09:09:52.313Z,1005.55
2018-12-22T09:10:43.011Z,1005.49
2018-12-22T09:11:43.003Z,1005.53
2018-12-22T09:12:43.014Z,1005.52
2018-12-22T09:13:42.979Z,1005.56
2018-12-22T09:14:42.967Z,1005.64
2018-12-22T09:15:42.957Z,1005.60
2018-12-22T09:16:42.947Z,1005.65
2018-12-22T09:17:51.273Z,1005.66
2018-12-22T09:18:42.923Z,1005.67
2018-12-22T09:19:42.967Z,1005.68
2018-12-22T09:20:42.904Z,1005.62
2018-12-22T09:21:42.892Z,1005.65
2018-12-22T09:22:42.929Z,1005.72
2018-12-22T09:23:42.871Z,1005.79
2018-12-22T09:24:42.946Z,1005.84
2018-12-22T09:25:42.848Z,1005.74
2018-12-22T09:26:42.839Z,1005.83
2018-12-22T09:27:42.847Z,1005.86
2018-12-22T09:28:42.838Z,1005.90
2018-12-22T09:30:12.175Z,1005.93
2018-12-22T09:31:20.602Z,1005.95
2018-12-22T09:32:12.143Z,1005.94
2018-12-22T09:33:12.156Z,1005.92
2018-12-22T09:34:13.457Z,1006.02
2018-12-22T09:35:12.111Z,1006.01
2018-12-22T09:36:20.403Z,1006.06
2018-12-22T09:37:12.089Z,1006.03
2018-12-22T09:38:12.104Z,1006.03
2018-12-22T09:39:12.067Z,1006.01
2018-12-22T09:40:12.059Z,1006.03
2018-12-22T09:41:12.051Z,1005.98
2018-12-22T09:42:12.038Z,1006.07
2018-12-22T09:43:12.042Z,1006.07
2018-12-22T09:44:12.010Z,1006.09
2018-12-22T09:45:12.002Z,1006.12
2018-12-22T09:46:11.988Z,1006.14
2018-12-22T09:47:11.979Z,1006.14
2018-12-22T09:48:21.346Z,1006.16
2018-12-22T09:49:11.958Z,1006.13
2018-12-22T09:50:21.544Z,1006.12
2018-12-22T09:51:11.934Z,1006.09
2018-12-22T09:52:11.925Z,1006.13
2018-12-22T09:53:11.934Z,1006.14
2018-12-22T09:54:12.265Z,1006.15
2018-12-22T09:55:11.890Z,1006.20
2018-12-22T09:56:11.876Z,1006.20
2018-12-22T09:57:21.385Z,1006.26
2018-12-22T09:58:11.877Z,1006.20
2018-12-22T09:59:11.846Z,1006.23
2018-12-22T10:00:11.832Z,1006.31
2018-12-22T10:01:11.822Z,1006.38
2018-12-22T10:02:11.813Z,1006.38
2018-12-22T10:03:11.821Z,1006.39
2018-12-22T10:04:11.793Z,1006.32
2018-12-22T10:05:11.781Z,1006.40
2018-12-22T10:06:11.867Z,1006.41
2018-12-22T10:07:11.754Z,1006.32
2018-12-22T10:08:11.766Z,1006.39
2018-12-22T10:09:11.733Z,1006.36
2018-12-22T10:10:11.721Z,1006.45
2018-12-22T10:11:11.709Z,1006.50
2018-12-22T10:12:11.698Z,1006.49
2018-12-22T10:13:11.710Z,1006.51
2018-12-22T10:14:11.678Z,1006.48
2018-12-22T10:15:11.664Z,1006.54
2018-12-22T10:16:11.654Z,1006.55
2018-12-22T10:17:11.645Z,1006.49
2018-12-22T10:18:11.654Z,1006.49
2018-12-22T10:19:11.622Z,1006.44
2018-12-22T10:20:11.610Z,1006.46
2018-12-22T10:21:11.606Z,1006.49
2018-12-22T10:22:11.587Z,1006.61
2018-12-22T10:23:11.608Z,1006.64
2018-12-22T10:24:11.568Z,1006.56
2018-12-22T10:25:11.556Z,1006.70
2018-12-22T10:26:11.549Z,1006.61
2018-12-22T10:27:11.530Z,1006.67
2018-12-22T10:28:11.520Z,1006.64
2018-12-22T10:29:11.530Z,1006.69
2018-12-22T10:30:21.419Z,1006.66
2018-12-22T10:31:17.949Z,1006.70
2018-12-22T10:32:11.478Z,1006.70
2018-12-22T10:33:11.465Z,1006.68
2018-12-22T10:34:11.481Z,1006.70
2018-12-22T10:35:11.441Z,1006.73
2018-12-22T10:36:11.430Z,1006.72
2018-12-22T10:37:11.419Z,1006.77
2018-12-22T10:38:19.767Z,1006.75
2018-12-22T10:39:11.401Z,1006.71
2018-12-22T10:40:11.387Z,1006.71
2018-12-22T10:41:11.376Z,1006.76
2018-12-22T10:42:11.368Z,1006.78
2018-12-22T10:43:11.351Z,1006.75
2018-12-22T10:44:11.367Z,1006.77
2018-12-22T10:45:11.332Z,1006.76
2018-12-22T10:46:11.319Z,1006.77
2018-12-22T10:48:15.065Z,1006.72
2018-12-22T10:49:15.068Z,1006.78
2018-12-22T10:50:15.034Z,1006.82
2018-12-22T10:51:15.023Z,1006.85
2018-12-22T10:52:15.018Z,1006.93
2018-12-22T10:53:15.001Z,1006.96
2018-12-22T10:54:15.013Z,1006.96
2018-12-22T10:55:14.978Z,1006.93
2018-12-22T10:56:14.966Z,1007.02
2018-12-22T10:57:14.959Z,1007.02
2018-12-22T10:58:14.952Z,1007.02
2018-12-22T10:59:24.396Z,1007.00
2018-12-22T11:00:14.927Z,1007.05
2018-12-22T11:01:14.911Z,1006.99
2018-12-22T11:02:23.853Z,1006.97
2018-12-22T11:03:14.953Z,1006.97
2018-12-22T11:04:14.906Z,1006.98
2018-12-22T11:05:14.871Z,1006.92
2018-12-22T11:06:14.857Z,1006.89
2018-12-22T11:07:14.846Z,1006.94
2018-12-22T11:08:14.835Z,1006.90
2018-12-22T11:09:14.858Z,1007.00
2018-12-22T11:10:14.812Z,1007.00
2018-12-22T11:11:23.506Z,1006.94
2018-12-22T11:12:14.789Z,1006.98
2018-12-22T11:13:24.539Z,1007.00
2018-12-22T11:14:14.793Z,1007.00
2018-12-22T11:15:14.755Z,1006.97
2018-12-22T11:16:14.753Z,1006.95
2018-12-22T11:17:14.733Z,1006.94
2018-12-22T11:18:14.730Z,1006.92
2018-12-22T11:19:14.738Z,1006.93
2018-12-22T11:20:14.699Z,1006.97
2018-12-22T11:21:14.688Z,1006.95
2018-12-22T11:22:14.678Z,1007.01
2018-12-22T11:23:20.378Z,1006.97
2018-12-22T11:24:14.678Z,1006.98
2018-12-22T11:25:14.645Z,1006.94
2018-12-22T11:26:14.637Z,1007.00
2018-12-22T11:27:14.621Z,1007.03
2018-12-22T11:28:14.611Z,1007.01
2018-12-22T11:29:24.183Z,1006.97
2018-12-22T11:30:14.589Z,1006.97
2018-12-22T11:31:14.578Z,1006.96
2018-12-22T11:32:14.571Z,1006.98
2018-12-22T11:33:14.575Z,1006.99
2018-12-22T11:34:14.565Z,1007.01
2018-12-22T11:35:14.535Z,1007.04
2018-12-22T11:36:14.664Z,1007.05
2018-12-22T11:37:24.285Z,1007.05
2018-12-22T11:38:14.628Z,1007.09
2018-12-22T11:39:14.512Z,1007.07
2018-12-22T11:40:14.481Z,1007.06
2018-12-22T11:41:14.464Z,1007.08
2018-12-22T11:42:14.454Z,1007.04
2018-12-22T11:43:14.442Z,1007.10
2018-12-22T11:44:14.456Z,1007.06
2018-12-22T11:45:24.068Z,1007.09
2018-12-22T11:46:14.410Z,1007.07
2018-12-22T11:47:14.401Z,1007.06
2018-12-22T11:48:14.387Z,1007.12
2018-12-22T11:49:14.401Z,1007.07
2018-12-22T11:50:14.363Z,1007.06
2018-12-22T11:51:14.358Z,1007.08
2018-12-22T11:52:14.362Z,1007.09
2018-12-22T11:53:14.336Z,1007.08
2018-12-22T11:54:14.368Z,1007.04
2018-12-22T11:55:14.308Z,1007.03
2018-12-22T11:56:14.368Z,1007.03
2018-12-22T11:57:14.284Z,1007.03
2018-12-22T11:59:05.317Z,1007.11
2018-12-22T12:00:05.326Z,1007.13
2018-12-22T12:01:05.293Z,1007.12
2018-12-22T12:02:09.563Z,1007.10
2018-12-22T12:03:05.295Z,1007.13
2018-12-22T12:04:05.261Z,1007.13
2018-12-22T12:05:05.274Z,1007.10
2018-12-22T12:06:05.238Z,1007.18
2018-12-22T12:07:13.633Z,1007.26
2018-12-22T12:08:05.214Z,1007.19
2018-12-22T12:09:05.202Z,1007.22
2018-12-22T12:10:05.219Z,1007.16